createdAt,value
2023-07-03T00:03:15.035Z,22.61
2023-07-03T00:06:37.991Z,22.57
2023-07-03T00:09:59.653Z,22.53
2023-07-03T00:13:21.317Z,22.53
2023-07-03T00:16:47.741Z,22.50
2023-07-03T00:20:15.625Z,22.46
2023-07-03T00:23:38.506Z,22.46
2023-07-03T00:27:01.135Z,22.35
2023-07-03T00:30:22.725Z,22.19
2023-07-03T00:33:46.862Z,22.15
2023-07-03T00:37:08.591Z,22.26
2023-07-03T00:40:30.403Z,22.22
2023-07-03T00:43:54.500Z,22.29
2023-07-03T00:47:16.333Z,22.26
2023-07-03T00:50:37.975Z,22.26
2023-07-03T00:54:00.203Z,22.16
2023-07-03T00:57:24.424Z,22.12
2023-07-03T01:00:57.086Z,22.06
2023-07-03T01:04:41.084Z,22.08
2023-07-03T01:08:03.670Z,22.04
2023-07-03T01:11:29.049Z,21.83
2023-07-03T01:14:51.398Z,21.78
2023-07-03T01:18:14.066Z,21.64
2023-07-03T01:22:00.368Z,21.53
2023-07-03T01:25:26.657Z,21.46
2023-07-03T01:28:57.125Z,21.64
2023-07-03T01:32:23.400Z,21.65
2023-07-03T01:35:50.337Z,21.78
2023-07-03T01:39:14.938Z,21.83
2023-07-03T01:42:42.537Z,21.81
2023-07-03T01:46:04.214Z,21.67
2023-07-03T01:49:25.872Z,21.53
2023-07-03T01:52:56.207Z,21.57
2023-07-03T01:56:32.725Z,21.33
2023-07-03T01:59:54.803Z,21.27
2023-07-03T02:03:26.431Z,21.35
2023-07-03T02:06:51.479Z,21.40
2023-07-03T02:10:15.576Z,21.40
2023-07-03T02:13:37.193Z,21.46
2023-07-03T02:16:58.864Z,21.49
2023-07-03T02:20:20.562Z,21.45
2023-07-03T02:23:43.193Z,21.39
2023-07-03T02:27:05.308Z,21.43
2023-07-03T02:30:26.958Z,21.47
2023-07-03T02:33:50.999Z,21.29
2023-07-03T02:37:15.301Z,21.30
2023-07-03T02:40:38.417Z,21.27
2023-07-03T02:44:00.626Z,21.29
2023-07-03T02:47:22.348Z,21.30
2023-07-03T02:50:46.238Z,21.32
2023-07-03T02:54:08.039Z,21.35
2023-07-03T02:57:29.991Z,21.29
2023-07-03T03:00:52.234Z,21.25
2023-07-03T03:04:14.944Z,21.25
2023-07-03T03:07:37.434Z,21.26
2023-07-03T03:11:00.285Z,21.29
2023-07-03T03:14:21.977Z,21.30
2023-07-03T03:17:43.707Z,21.26
2023-07-03T03:21:05.473Z,21.15
2023-07-03T03:24:28.178Z,21.13
2023-07-03T03:27:52.093Z,21.06
2023-07-03T03:31:18.596Z,20.96
2023-07-03T03:34:40.225Z,20.98
2023-07-03T03:38:04.428Z,21.06
2023-07-03T03:41:26.430Z,21.05
2023-07-03T03:44:48.201Z,21.03
2023-07-03T03:48:09.957Z,21.06
2023-07-03T03:51:31.693Z,21.05
2023-07-03T03:54:53.456Z,21.03
2023-07-03T03:58:17.325Z,21.10
2023-07-03T04:01:39.634Z,21.15
2023-07-03T04:05:01.404Z,21.12
2023-07-03T04:08:25.566Z,21.13
2023-07-03T04:11:52.041Z,21.13
2023-07-03T04:15:13.614Z,21.12
2023-07-03T04:18:38.494Z,21.12
2023-07-03T04:22:00.190Z,21.19
2023-07-03T04:25:21.854Z,21.22
2023-07-03T04:28:43.561Z,21.25
2023-07-03T04:32:05.613Z,21.27
2023-07-03T04:35:29.985Z,21.32
2023-07-03T04:38:51.622Z,21.36
2023-07-03T04:42:15.557Z,21.45
2023-07-03T04:45:52.317Z,21.49
2023-07-03T04:49:16.520Z,21.50
2023-07-03T04:52:39.997Z,21.61
2023-07-03T04:56:01.681Z,21.63
2023-07-03T04:59:23.472Z,21.45
2023-07-03T05:02:47.102Z,21.50
2023-07-03T05:06:08.906Z,21.73
2023-07-03T05:09:32.822Z,21.97
2023-07-03T05:12:54.489Z,22.15
2023-07-03T05:16:16.224Z,22.40
2023-07-03T05:19:40.360Z,22.66
2023-07-03T05:23:01.952Z,22.84
2023-07-03T05:26:23.638Z,22.70
2023-07-03T05:29:47.559Z,23.06
2023-07-03T05:33:11.929Z,23.34
2023-07-03T05:36:33.669Z,23.56
2023-07-03T05:39:57.589Z,23.63
2023-07-03T05:43:19.787Z,23.73
2023-07-03T05:46:41.686Z,23.79
2023-07-03T05:50:04.283Z,23.84
2023-07-03T05:53:25.962Z,23.45
2023-07-03T05:56:57.566Z,23.83
2023-07-03T06:00:19.504Z,24.14
2023-07-03T06:03:44.116Z,24.24
2023-07-03T06:07:07.220Z,24.69
2023-07-03T06:10:29.080Z,24.99
2023-07-03T06:13:53.002Z,25.37
2023-07-03T06:17:14.620Z,25.62
2023-07-03T06:20:36.301Z,25.78
2023-07-03T06:23:57.880Z,25.67
2023-07-03T06:27:19.595Z,25.67
2023-07-03T06:30:51.283Z,25.85
2023-07-03T06:34:13.634Z,25.75
2023-07-03T06:37:35.518Z,25.77
2023-07-03T06:41:00.713Z,26.19
2023-07-03T06:44:22.344Z,26.26
2023-07-03T06:47:44.158Z,26.25
2023-07-03T06:51:07.973Z,26.25
2023-07-03T06:54:29.641Z,26.40
2023-07-03T06:57:53.959Z,26.51
2023-07-03T07:01:16.758Z,26.99
2023-07-03T07:04:38.411Z,27.36
2023-07-03T07:08:00.049Z,27.73
2023-07-03T07:11:28.370Z,27.49
2023-07-03T07:14:50.097Z,27.60
2023-07-03T07:18:11.796Z,28.00
2023-07-03T07:21:39.506Z,28.39
2023-07-03T07:25:01.334Z,28.51
2023-07-03T07:28:26.177Z,28.44
2023-07-03T07:31:50.014Z,28.59
2023-07-03T07:35:11.679Z,28.60
2023-07-03T07:38:33.247Z,28.18
2023-07-03T07:42:00.360Z,28.65
2023-07-03T07:45:24.144Z,28.62
2023-07-03T07:48:48.723Z,28.67
2023-07-03T07:52:14.870Z,28.72
2023-07-03T07:55:39.447Z,28.56
2023-07-03T07:59:06.038Z,28.65
2023-07-03T08:02:28.128Z,28.28
2023-07-03T08:05:56.185Z,28.89
2023-07-03T08:09:22.480Z,29.02
2023-07-03T08:12:44.335Z,28.90
2023-07-03T08:16:06.332Z,28.92
2023-07-03T08:19:30.434Z,29.20
2023-07-03T08:22:52.091Z,29.86
2023-07-03T08:26:21.752Z,29.00
2023-07-03T08:29:45.637Z,28.37
2023-07-03T08:33:12.077Z,28.65
2023-07-03T08:40:06.348Z,28.84
2023-07-03T08:43:35.272Z,28.67
2023-07-03T08:47:11.463Z,28.92
2023-07-03T08:50:37.988Z,29.17
2023-07-03T08:54:32.533Z,29.99
2023-07-03T08:57:54.263Z,30.54
2023-07-03T09:01:43.367Z,30.65
2023-07-03T09:05:25.597Z,30.48
2023-07-03T09:08:59.317Z,29.69
2023-07-03T09:12:31.559Z,29.62
2023-07-03T09:16:08.128Z,29.98
2023-07-03T09:19:32.922Z,30.16
2023-07-03T09:23:09.410Z,30.36
2023-07-03T09:26:54.907Z,30.14
2023-07-03T09:30:17.317Z,30.48
2023-07-03T09:33:42.814Z,30.67
2023-07-03T09:37:07.433Z,30.84
2023-07-03T09:40:38.628Z,29.78
2023-07-03T09:44:07.270Z,29.75
2023-07-03T09:47:31.420Z,29.42
2023-07-03T09:51:06.405Z,29.28
2023-07-03T09:54:31.140Z,29.45
2023-07-03T09:57:52.969Z,29.58
2023-07-03T10:08:24.287Z,29.78
2023-07-03T10:12:21.954Z,29.38
2023-07-03T10:15:44.060Z,29.31
2023-07-03T10:19:06.024Z,29.50
2023-07-03T10:22:28.087Z,30.23
2023-07-03T10:25:56.214Z,30.17
2023-07-03T10:29:27.439Z,30.69
2023-07-03T10:32:52.416Z,31.18
2023-07-03T10:36:22.083Z,31.88
2023-07-03T10:40:11.587Z,32.22
2023-07-03T10:43:43.798Z,32.19
2023-07-03T10:47:37.713Z,31.97
2023-07-03T10:51:11.370Z,30.85
2023-07-03T10:54:56.346Z,31.11
2023-07-03T10:58:30.315Z,30.57
2023-07-03T11:02:21.121Z,30.78
2023-07-03T11:05:54.366Z,30.86
2023-07-03T11:09:30.510Z,30.49
2023-07-03T11:13:11.775Z,30.02
2023-07-03T11:16:48.430Z,30.34
2023-07-03T11:20:23.475Z,30.76
2023-07-03T11:24:03.600Z,31.13
2023-07-03T11:31:01.124Z,30.33
2023-07-03T11:45:27.696Z,30.55
2023-07-03T11:48:57.924Z,30.37
2023-07-03T11:52:36.488Z,29.92
2023-07-03T11:56:00.381Z,29.68
2023-07-03T11:59:25.818Z,29.68
2023-07-03T12:02:52.386Z,29.68
2023-07-03T12:06:54.836Z,29.79
2023-07-03T12:10:19.625Z,29.51
2023-07-03T12:13:52.503Z,29.59
2023-07-03T12:17:18.217Z,29.45
2023-07-03T12:20:39.954Z,29.62
2023-07-03T12:24:04.066Z,29.68
2023-07-03T12:27:25.716Z,29.55
2023-07-03T12:30:47.406Z,29.23
2023-07-03T12:34:09.248Z,29.11
2023-07-03T12:37:33.411Z,29.24
2023-07-03T12:40:55.073Z,29.15
2023-07-03T12:44:16.803Z,28.93
2023-07-03T12:47:38.554Z,28.96
2023-07-03T12:51:03.103Z,29.03
2023-07-03T12:54:27.176Z,28.97
2023-07-03T12:57:50.087Z,28.93
2023-07-03T13:01:12.814Z,29.07
2023-07-03T13:04:35.617Z,29.25
2023-07-03T13:07:57.310Z,29.23
2023-07-03T13:11:39.776Z,29.04
2023-07-03T13:15:49.774Z,28.77
2023-07-03T13:19:11.725Z,28.55
2023-07-03T13:22:34.161Z,28.67
2023-07-03T13:25:56.939Z,28.65
2023-07-03T13:29:31.973Z,28.58
2023-07-03T13:33:02.268Z,28.48
2023-07-03T13:36:27.823Z,28.65
2023-07-03T13:40:00.554Z,28.52
2023-07-03T13:43:35.510Z,28.59
2023-07-03T13:46:57.708Z,28.59
2023-07-03T13:50:19.314Z,28.83
2023-07-03T13:53:40.982Z,28.62
2023-07-03T13:57:04.869Z,28.58
2023-07-03T14:00:28.289Z,28.62
2023-07-03T14:03:50.109Z,28.59
2023-07-03T14:07:12.142Z,28.55
2023-07-03T14:10:33.841Z,28.46
2023-07-03T14:13:56.740Z,28.31
2023-07-03T14:17:23.587Z,28.32
2023-07-03T14:20:49.898Z,28.29
2023-07-03T14:24:14.017Z,28.41
2023-07-03T14:27:37.307Z,28.25
2023-07-03T14:31:01.422Z,28.28
2023-07-03T14:34:23.085Z,28.52
2023-07-03T14:37:44.727Z,28.67
2023-07-03T14:41:09.444Z,28.97
2023-07-03T14:44:31.178Z,28.92
2023-07-03T14:47:55.106Z,29.11
2023-07-03T14:51:16.724Z,28.75
2023-07-03T14:54:41.413Z,28.67
2023-07-03T14:58:11.380Z,28.67
2023-07-03T15:01:33.378Z,28.45
2023-07-03T15:04:55.103Z,28.46
2023-07-03T15:08:16.842Z,28.60
2023-07-03T15:11:40.649Z,28.65
2023-07-03T15:15:05.365Z,28.69
2023-07-03T15:18:27.112Z,28.75
2023-07-03T15:21:51.101Z,28.56
2023-07-03T15:25:14.792Z,28.60
2023-07-03T15:28:39.434Z,28.56
2023-07-03T15:32:01.388Z,28.65
2023-07-03T15:35:23.114Z,28.59
2023-07-03T15:38:44.923Z,28.59
2023-07-03T15:42:09.026Z,28.70
2023-07-03T15:45:32.846Z,28.58
2023-07-03T15:48:54.496Z,28.32
2023-07-03T15:52:16.113Z,28.10
2023-07-03T15:55:37.708Z,28.00
2023-07-03T15:59:05.122Z,28.14
2023-07-03T16:02:26.889Z,28.14
2023-07-03T16:06:00.639Z,27.98
2023-07-03T16:09:24.788Z,27.90
2023-07-03T16:12:46.404Z,27.94
2023-07-03T16:16:10.301Z,27.86
2023-07-03T16:19:31.910Z,27.89
2023-07-03T16:22:55.898Z,27.71
2023-07-03T16:26:19.972Z,27.77
2023-07-03T16:29:43.582Z,27.84
2023-07-03T16:33:05.337Z,27.60
2023-07-03T16:36:32.028Z,27.63
2023-07-03T16:39:53.665Z,27.62
2023-07-03T16:43:18.314Z,27.57
2023-07-03T16:46:47.220Z,27.52
2023-07-03T16:50:09.163Z,27.45
2023-07-03T16:53:35.791Z,27.25
2023-07-03T16:56:59.824Z,27.05
2023-07-03T17:00:21.717Z,26.95
2023-07-03T17:03:45.933Z,26.94
2023-07-03T17:07:09.995Z,26.95
2023-07-03T17:10:35.909Z,27.08
2023-07-03T17:14:00.384Z,27.02
2023-07-03T17:17:25.048Z,27.01
2023-07-03T17:20:47.314Z,27.06
2023-07-03T17:24:11.205Z,27.01
2023-07-03T17:27:32.835Z,27.06
2023-07-03T17:30:55.202Z,26.97
2023-07-03T17:34:16.830Z,27.05
2023-07-03T17:37:38.490Z,27.16
2023-07-03T17:41:02.880Z,26.99
2023-07-03T17:44:26.781Z,26.83
2023-07-03T17:47:49.183Z,26.83
2023-07-03T17:51:15.542Z,26.70
2023-07-03T17:54:41.964Z,26.57
2023-07-03T17:58:04.171Z,26.49
2023-07-03T18:01:25.775Z,26.50
2023-07-03T18:04:47.418Z,26.39
2023-07-03T18:08:09.231Z,26.43
2023-07-03T18:11:31.035Z,26.44
2023-07-03T18:14:58.703Z,26.50
2023-07-03T18:18:21.017Z,26.44
2023-07-03T18:21:45.321Z,26.46
2023-07-03T18:25:11.791Z,26.40
2023-07-03T18:28:33.455Z,26.41
2023-07-03T18:31:59.857Z,26.43
2023-07-03T18:35:21.469Z,26.41
2023-07-03T18:38:46.965Z,26.39
2023-07-03T18:42:08.787Z,26.33
2023-07-03T18:45:30.386Z,26.32
2023-07-03T18:48:52.026Z,26.23
2023-07-03T18:52:13.689Z,26.19
2023-07-03T18:55:37.527Z,26.13
2023-07-03T18:59:04.072Z,26.12
2023-07-03T19:02:25.696Z,26.08
2023-07-03T19:05:59.343Z,26.08
2023-07-03T19:09:21.038Z,26.03
2023-07-03T19:12:42.815Z,25.99
2023-07-03T19:16:14.527Z,25.96
2023-07-03T19:19:39.231Z,25.92
2023-07-03T19:23:03.735Z,25.91
2023-07-03T19:26:25.355Z,25.95
2023-07-03T19:29:49.389Z,25.89
2023-07-03T19:33:13.135Z,25.82
2023-07-03T19:36:34.892Z,25.81
2023-07-03T19:40:01.060Z,25.78
2023-07-03T19:43:22.959Z,25.71
2023-07-03T19:46:44.662Z,25.67
2023-07-03T19:50:11.673Z,25.57
2023-07-03T19:53:33.458Z,25.53
2023-07-03T19:56:55.118Z,25.48
2023-07-03T20:00:16.895Z,25.45
2023-07-03T20:03:39.775Z,25.44
2023-07-03T20:07:03.982Z,25.44
2023-07-03T20:10:25.715Z,25.50
2023-07-03T20:13:50.593Z,25.50
2023-07-03T20:17:12.421Z,25.45
2023-07-03T20:20:36.641Z,25.43
2023-07-03T20:23:58.288Z,25.43
2023-07-03T20:27:19.901Z,25.33
2023-07-03T20:30:47.606Z,25.28
2023-07-03T20:34:09.373Z,25.26
2023-07-03T20:37:31.073Z,25.20
2023-07-03T20:41:07.593Z,25.13
2023-07-03T20:44:35.792Z,25.13
2023-07-03T20:47:57.478Z,25.12
2023-07-03T20:51:22.989Z,25.12
2023-07-03T20:54:55.180Z,25.10
2023-07-03T20:58:16.820Z,25.07
2023-07-03T21:01:41.530Z,25.03
2023-07-03T21:05:06.005Z,25.02
2023-07-03T21:08:30.679Z,25.03
2023-07-03T21:11:52.522Z,24.92
2023-07-03T21:15:14.824Z,24.82
2023-07-03T21:18:37.772Z,24.64
2023-07-03T21:21:59.421Z,24.64
2023-07-03T21:25:21.030Z,24.62
2023-07-03T21:28:42.843Z,24.65
2023-07-03T21:32:07.817Z,24.65
2023-07-03T21:35:29.571Z,24.67
2023-07-03T21:38:56.241Z,24.67
2023-07-03T21:42:17.957Z,24.52
2023-07-03T21:45:42.362Z,24.34
2023-07-03T21:49:06.280Z,24.35
2023-07-03T21:52:30.191Z,24.40
2023-07-03T21:55:54.336Z,24.40
2023-07-03T21:59:16.293Z,24.41
2023-07-03T22:02:37.991Z,24.35
2023-07-03T22:06:04.884Z,24.31
2023-07-03T22:09:37.652Z,24.32
2023-07-03T22:13:00.497Z,24.35
2023-07-03T22:16:28.086Z,24.38
2023-07-03T22:19:51.403Z,24.45
2023-07-03T22:23:16.389Z,24.47
2023-07-03T22:26:46.346Z,24.48
2023-07-03T22:30:09.175Z,24.44
2023-07-03T22:33:33.593Z,24.47
2023-07-03T22:36:55.330Z,24.35
2023-07-03T22:40:17.219Z,24.35
2023-07-03T22:43:40.440Z,24.32
2023-07-03T22:47:05.603Z,24.34
2023-07-03T22:50:27.979Z,24.31
2023-07-03T22:53:50.207Z,24.37
2023-07-03T22:57:11.847Z,24.32
2023-07-03T23:00:33.847Z,24.37
2023-07-03T23:03:55.601Z,24.34
2023-07-03T23:07:22.673Z,24.20
2023-07-03T23:10:52.376Z,24.16
2023-07-03T23:14:17.005Z,24.20
2023-07-03T23:17:44.406Z,24.18
2023-07-03T23:21:12.610Z,24.18
2023-07-03T23:24:34.476Z,24.21
2023-07-03T23:27:59.056Z,23.84
2023-07-03T23:31:21.048Z,23.66
2023-07-03T23:34:45.045Z,23.48
2023-07-03T23:38:10.925Z,23.49
2023-07-03T23:41:38.059Z,23.66
2023-07-03T23:44:59.748Z,23.65
2023-07-03T23:48:21.969Z,23.76
2023-07-03T23:51:43.827Z,23.83
2023-07-03T23:55:11.518Z,23.74
2023-07-03T23:58:36.888Z,23.80
